Time;durP1;ratioP1;P1;durP2;ratioP2;P2;SDS_P1;SDS_P2;PMS_P1;PMS_P2;Temp;Humidity;BMP_temperature;BMP_pressure;BME280_temperature;BME280_humidity;BME280_pressure;Samples;Min_cycle;Max_cycle;Signal;HPM_P1;HPM_P2
2022/04/29 00:00:30;;;;;;;15.27;12.70;;;11.40;90.90;;;;;;6067209;23;20776;-88
2022/04/29 00:02:57;;;;;;;15.13;12.60;;;11.30;91.00;;;;;;6069125;23;20417;-88
2022/04/29 00:05:25;;;;;;;16.67;12.60;;;11.30;91.40;;;;;;6067573;23;20413;-88
2022/04/29 00:07:52;;;;;;;16.30;13.43;;;11.20;91.70;;;;;;6095356;23;20459;-88
2022/04/29 00:10:20;;;;;;;14.67;13.17;;;11.10;92.20;;;;;;6096141;23;20401;-88
2022/04/29 00:12:49;;;;;;;15.43;13.80;;;11.10;92.60;;;;;;6095687;23;20409;-88
2022/04/29 00:15:17;;;;;;;16.63;13.80;;;11.10;92.70;;;;;;6095635;23;20403;-88
2022/04/29 00:17:44;;;;;;;14.00;12.60;;;11.00;93.10;;;;;;6109363;23;20521;-89
2022/04/29 00:20:12;;;;;;;15.27;13.80;;;11.00;93.50;;;;;;6106420;23;20465;-89
2022/04/29 00:22:41;;;;;;;16.77;15.13;;;10.90;93.70;;;;;;6101968;23;20409;-88
2022/04/29 00:25:09;;;;;;;14.80;13.40;;;10.90;93.90;;;;;;6095949;23;20454;-88
2022/04/29 00:27:36;;;;;;;14.50;12.97;;;10.90;93.90;;;;;;6106549;23;20425;-88
2022/04/29 00:30:05;;;;;;;14.97;13.67;;;11.00;93.80;;;;;;6123729;23;20412;-88
2022/04/29 00:32:32;;;;;;;16.63;14.57;;;10.90;93.80;;;;;;6124127;23;20389;-88
2022/04/29 00:34:59;;;;;;;14.67;13.23;;;10.80;94.00;;;;;;6123510;23;20412;-87
2022/04/29 00:37:25;;;;;;;16.10;14.43;;;10.90;94.50;;;;;;6123540;23;20444;-88
2022/04/29 00:39:53;;;;;;;16.00;14.33;;;10.90;94.60;;;;;;6101833;23;20408;-88
2022/04/29 00:42:22;;;;;;;16.60;14.90;;;10.80;95.20;;;;;;6125491;23;20408;-88
2022/04/29 00:44:49;;;;;;;15.37;13.90;;;10.70;95.40;;;;;;6125261;23;20456;-88
2022/04/29 00:47:18;;;;;;;15.20;13.77;;;10.70;95.60;;;;;;6125259;23;20409;-88
2022/04/29 00:49:45;;;;;;;14.73;13.33;;;10.60;95.90;;;;;;6116306;23;20405;-88
2022/04/29 00:52:14;;;;;;;16.00;14.47;;;10.60;96.30;;;;;;6100366;23;20911;-89
2022/04/29 00:54:43;;;;;;;16.30;14.07;;;10.60;96.40;;;;;;6075401;23;20388;-89
2022/04/29 00:57:19;;;;;;;17.70;16.00;;;10.50;96.70;;;;;;6096875;23;20436;-89
2022/04/29 00:59:50;;;;;;;18.70;14.40;;;10.40;97.40;;;;;;6105605;23;20395;-87
2022/04/29 01:02:16;;;;;;;17.37;15.63;;;10.40;97.70;;;;;;6120646;23;20399;-88
2022/04/29 01:04:49;;;;;;;15.57;13.97;;;10.50;97.50;;;;;;6099781;23;20747;-89
2022/04/29 01:07:15;;;;;;;16.97;15.23;;;10.50;97.10;;;;;;6103640;23;20440;-88
2022/04/29 01:09:42;;;;;;;17.37;15.60;;;10.60;97.00;;;;;;6119403;23;20404;-88
2022/04/29 01:12:09;;;;;;;17.07;15.50;;;10.50;97.10;;;;;;6125169;23;20392;-88
2022/04/29 01:14:38;;;;;;;16.83;14.90;;;10.40;97.40;;;;;;6113715;23;20406;-88
2022/04/29 01:17:06;;;;;;;15.83;14.37;;;10.40;97.90;;;;;;6117855;23;20440;-88
2022/04/29 01:19:32;;;;;;;17.77;15.97;;;10.30;98.00;;;;;;6120910;23;20499;-88
2022/04/29 01:22:02;;;;;;;16.60;14.90;;;10.40;98.20;;;;;;6117913;23;20404;-89
2022/04/29 01:24:29;;;;;;;16.63;15.03;;;10.30;98.60;;;;;;6111104;23;20497;-89
2022/04/29 01:26:55;;;;;;;16.53;15.03;;;10.40;99.00;;;;;;6110526;23;20429;-88
2022/04/29 01:29:23;;;;;;;17.00;15.00;;;10.20;98.70;;;;;;6108860;23;20409;-89
2022/04/29 01:31:53;;;;;;;17.93;16.23;;;10.30;99.00;;;;;;6100142;23;20405;-88
2022/04/29 01:34:19;;;;;;;17.87;16.13;;;10.20;99.10;;;;;;6122327;23;20389;-88
2022/04/29 01:36:46;;;;;;;16.67;15.00;;;10.20;99.20;;;;;;6125926;23;20414;-88
2022/04/29 01:39:14;;;;;;;16.63;14.93;;;10.10;99.40;;;;;;6117920;23;20409;-88
2022/04/29 01:41:41;;;;;;;18.07;16.40;;;10.10;99.40;;;;;;6101975;23;20409;-88
2022/04/29 01:44:07;;;;;;;16.47;15.07;;;10.10;99.80;;;;;;6097835;23;20459;-88
2022/04/29 01:46:34;;;;;;;14.83;13.50;;;10.10;99.90;;;;;;6097314;23;20943;-88
2022/04/29 01:49:01;;;;;;;16.87;15.27;;;10.00;99.90;;;;;;6097927;23;20408;-88
2022/04/29 01:51:29;;;;;;;14.87;13.47;;;10.00;99.90;;;;;;6116736;23;20472;-88
2022/04/29 01:53:55;;;;;;;17.73;15.30;;;10.00;99.90;;;;;;6098633;23;20412;-88
2022/04/29 01:56:32;;;;;;;15.83;14.33;;;9.80;99.90;;;;;;6098140;23;20812;-88
2022/04/29 01:58:59;;;;;;;17.77;15.97;;;9.70;99.90;;;;;;6104391;23;20421;-89
2022/04/29 02:01:27;;;;;;;17.07;15.33;;;9.60;99.90;;;;;;6107576;23;20409;-88
2022/04/29 02:03:54;;;;;;;16.00;14.43;;;9.60;99.90;;;;;;6103216;23;20444;-88
2022/04/29 02:06:21;;;;;;;16.90;15.33;;;9.60;99.90;;;;;;6111066;23;20436;-88
2022/04/29 02:08:48;;;;;;;17.70;14.70;;;9.70;99.90;;;;;;6118726;23;20393;-88
2022/04/29 02:11:16;;;;;;;20.17;15.30;;;9.60;99.90;;;;;;6102827;23;20416;-88
2022/04/29 02:13:44;;;;;;;15.20;13.80;;;9.60;99.90;;;;;;6098090;23;20412;-88
2022/04/29 02:19:40;;;;;;;16.80;15.20;;;9.60;99.90;;;;;;6117923;23;20398;-88
2022/04/29 02:22:09;;;;;;;17.57;15.80;;;9.60;99.90;;;;;;6124650;23;20397;-88
2022/04/29 02:24:36;;;;;;;16.67;15.17;;;9.50;99.90;;;;;;6123513;23;20464;-88
2022/04/29 02:27:04;;;;;;;18.97;17.07;;;9.50;99.90;;;;;;6100835;23;20825;-89
2022/04/29 02:29:32;;;;;;;16.20;14.70;;;9.50;99.90;;;;;;6097561;23;20420;-88
2022/04/29 02:31:59;;;;;;;16.53;14.83;;;9.50;99.90;;;;;;6097776;23;20906;-88
2022/04/29 02:34:27;;;;;;;21.27;16.37;;;9.40;99.90;;;;;;6096563;23;20412;-88
2022/04/29 02:36:54;;;;;;;17.63;15.97;;;9.50;99.90;;;;;;6096881;23;20494;-88
2022/04/29 02:39:21;;;;;;;17.23;15.60;;;9.40;99.90;;;;;;6097759;23;20748;-88
2022/04/29 02:41:48;;;;;;;17.07;15.43;;;9.40;99.90;;;;;;6098919;23;20416;-89
2022/04/29 02:44:14;;;;;;;16.23;14.83;;;9.30;99.90;;;;;;6098566;23;20531;-88
2022/04/29 02:49:23;;;;;;;17.30;15.80;;;9.20;99.90;;;;;;6112366;23;20408;-89
2022/04/29 02:51:50;;;;;;;18.80;16.83;;;9.20;99.90;;;;;;6097672;23;20719;-88
2022/04/29 02:54:16;;;;;;;16.53;14.83;;;9.30;99.90;;;;;;6097134;23;20403;-88
2022/04/29 02:56:43;;;;;;;16.57;15.07;;;9.30;99.90;;;;;;6096562;23;20969;-88
2022/04/29 02:59:10;;;;;;;17.20;15.37;;;9.30;99.90;;;;;;6097986;23;20405;-89
2022/04/29 03:01:37;;;;;;;17.90;15.97;;;9.30;99.90;;;;;;6098630;23;20401;-89
2022/04/29 03:04:05;;;;;;;16.57;14.87;;;9.30;99.90;;;;;;6099045;23;20413;-88
2022/04/29 03:06:32;;;;;;;18.30;15.50;;;9.30;99.90;;;;;;6097383;23;20526;-88
2022/04/29 03:08:58;;;;;;;17.93;16.13;;;9.30;99.90;;;;;;6098948;23;20408;-89
2022/04/29 03:11:25;;;;;;;17.63;16.03;;;9.30;99.90;;;;;;6120493;23;20412;-89
2022/04/29 03:13:52;;;;;;;17.13;15.47;;;9.30;99.90;;;;;;6115999;23;20783;-89
2022/04/29 03:16:18;;;;;;;16.23;14.53;;;9.20;99.90;;;;;;6114927;23;20429;-89
2022/04/29 03:18:45;;;;;;;17.10;15.20;;;9.20;99.90;;;;;;6122600;23;20432;-87
2022/04/29 03:21:13;;;;;;;17.93;16.17;;;9.20;99.90;;;;;;6115738;23;20440;-88
2022/04/29 03:23:40;;;;;;;23.07;16.10;;;9.10;99.90;;;;;;6097654;23;20416;-88
2022/04/29 03:26:07;;;;;;;17.67;15.87;;;9.10;99.90;;;;;;6097917;23;20826;-88
2022/04/29 03:28:34;;;;;;;16.27;14.67;;;9.10;99.90;;;;;;6096556;23;20717;-89
2022/04/29 03:31:01;;;;;;;26.17;16.63;;;9.10;99.90;;;;;;6108356;23;20396;-88
2022/04/29 03:33:27;;;;;;;18.30;16.47;;;8.90;99.90;;;;;;6124307;23;20435;-88
2022/04/29 03:35:54;;;;;;;16.40;14.90;;;9.00;99.90;;;;;;6120284;23;20428;-89
2022/04/29 03:38:22;;;;;;;17.57;15.87;;;9.00;99.90;;;;;;6109627;23;20884;-88
2022/04/29 03:40:50;;;;;;;19.90;18.20;;;8.90;99.90;;;;;;6097550;23;20738;-89
2022/04/29 03:43:17;;;;;;;17.13;15.60;;;9.00;99.90;;;;;;6101995;23;20405;-88
2022/04/29 03:45:43;;;;;;;16.93;15.43;;;9.00;99.90;;;;;;6104474;23;20448;-88
2022/04/29 03:48:10;;;;;;;17.70;15.90;;;9.00;99.90;;;;;;6100415;23;20413;-88
2022/04/29 03:50:38;;;;;;;18.20;16.20;;;9.00;99.90;;;;;;6122491;23;20414;-88
2022/04/29 03:53:06;;;;;;;18.73;16.80;;;9.00;99.90;;;;;;6117286;23;20405;-88
2022/04/29 03:55:35;;;;;;;16.93;15.37;;;9.00;99.90;;;;;;6104317;23;20404;-88
2022/04/29 03:58:03;;;;;;;17.23;15.60;;;9.00;99.90;;;;;;6110943;23;20415;-88
2022/04/29 04:00:32;;;;;;;17.90;16.20;;;8.90;99.90;;;;;;6107536;23;20461;-88
2022/04/29 04:02:59;;;;;;;15.07;13.77;;;8.90;99.90;;;;;;6102367;23;20445;-88
2022/04/29 04:05:28;;;;;;;17.00;15.30;;;8.90;99.90;;;;;;6109668;23;20441;-88
2022/04/29 04:07:55;;;;;;;16.30;14.70;;;8.90;99.90;;;;;;6096480;23;20385;-88
2022/04/29 04:10:22;;;;;;;15.93;14.37;;;8.80;99.90;;;;;;6095462;23;20448;-88
2022/04/29 04:12:51;;;;;;;16.20;14.73;;;8.80;99.90;;;;;;6097562;23;20409;-87
2022/04/29 04:15:20;;;;;;;15.13;13.83;;;8.70;99.90;;;;;;6107186;23;20385;-87
2022/04/29 04:17:47;;;;;;;15.93;13.77;;;8.60;99.90;;;;;;6109752;23;20405;-88
2022/04/29 04:20:16;;;;;;;16.17;14.67;;;8.70;99.90;;;;;;6105107;23;20432;-88
2022/04/29 04:22:43;;;;;;;18.63;16.10;;;8.60;99.90;;;;;;6104552;23;21031;-87
2022/04/29 04:25:11;;;;;;;17.40;15.60;;;8.70;99.90;;;;;;6101217;23;20440;-88
2022/04/29 04:27:38;;;;;;;15.37;13.87;;;8.80;99.90;;;;;;6118223;23;20420;-87
2022/04/29 04:30:08;;;;;;;15.30;13.90;;;8.80;99.90;;;;;;6118399;23;20412;-88
2022/04/29 04:32:35;;;;;;;17.17;15.37;;;8.90;99.90;;;;;;6096852;23;20440;-88
2022/04/29 04:35:02;;;;;;;16.87;15.30;;;9.00;99.90;;;;;;6120938;23;20412;-87
2022/04/29 04:37:30;;;;;;;17.43;15.73;;;9.10;99.90;;;;;;6103566;23;20424;-88
2022/04/29 04:39:59;;;;;;;15.83;14.33;;;9.10;99.90;;;;;;6098615;23;20477;-88
2022/04/29 04:42:26;;;;;;;19.13;14.67;;;9.10;99.90;;;;;;6096238;23;20412;-87
2022/04/29 04:44:53;;;;;;;19.87;14.30;;;9.20;99.90;;;;;;6095915;23;20507;-88
2022/04/29 04:47:23;;;;;;;17.83;13.20;;;9.30;99.90;;;;;;6096368;23;20500;-88
2022/04/29 04:49:49;;;;;;;26.83;14.93;;;9.30;99.90;;;;;;6096821;23;20412;-88
2022/04/29 04:52:16;;;;;;;16.90;14.60;;;9.40;99.90;;;;;;6096697;23;20464;-88
2022/04/29 04:54:43;;;;;;;19.50;14.33;;;9.60;99.90;;;;;;6109030;23;20397;-88
2022/04/29 04:57:09;;;;;;;15.20;13.60;;;9.70;99.90;;;;;;6121835;23;20404;-88
2022/04/29 04:59:36;;;;;;;14.10;12.17;;;9.70;99.90;;;;;;6122479;23;20413;-87
2022/04/29 05:02:03;;;;;;;14.87;13.37;;;9.80;99.90;;;;;;6124014;23;20397;-87
2022/04/29 05:04:31;;;;;;;15.63;13.60;;;9.90;99.90;;;;;;6111783;23;20510;-88
2022/04/29 05:06:58;;;;;;;15.33;13.77;;;9.90;99.90;;;;;;6096755;23;20440;-88
2022/04/29 05:09:25;;;;;;;15.53;13.97;;;10.10;99.90;;;;;;6102091;23;20404;-87
2022/04/29 05:11:52;;;;;;;24.80;15.47;;;10.30;99.90;;;;;;6108401;23;20772;-88
2022/04/29 05:14:18;;;;;;;16.57;14.10;;;10.50;99.90;;;;;;6095511;23;20416;-88
2022/04/29 05:16:45;;;;;;;15.70;14.13;;;10.60;99.90;;;;;;6098100;23;20429;-88
2022/04/29 05:19:12;;;;;;;19.10;15.73;;;10.50;99.90;;;;;;6096227;23;20456;-88
2022/04/29 05:21:40;;;;;;;19.50;16.03;;;10.50;99.90;;;;;;6096296;23;20792;-88
2022/04/29 05:24:07;;;;;;;21.60;16.00;;;10.50;99.90;;;;;;6099213;23;20421;-88
2022/04/29 05:26:34;;;;;;;20.73;16.63;;;10.70;99.90;;;;;;6114931;23;20428;-88
2022/04/29 05:29:01;;;;;;;18.70;16.70;;;10.80;99.90;;;;;;6121415;23;20420;-88
2022/04/29 05:31:28;;;;;;;22.73;15.60;;;10.90;99.90;;;;;;6107076;23;20421;-88
2022/04/29 05:33:55;;;;;;;21.33;16.10;;;11.00;99.90;;;;;;6107485;23;20749;-89
2022/04/29 05:36:22;;;;;;;18.77;15.87;;;10.90;99.90;;;;;;6104140;23;20432;-88
2022/04/29 05:44:19;;;;;;;20.80;18.40;;;10.70;99.90;;;;;;6098193;23;20456;-87
2022/04/29 05:46:45;;;;;;;22.27;19.90;;;10.70;99.90;;;;;;6104174;23;20471;-88
2022/04/29 05:49:12;;;;;;;20.57;17.90;;;10.80;99.90;;;;;;6110616;23;20412;-88
2022/04/29 05:51:39;;;;;;;22.00;19.73;;;10.90;99.90;;;;;;6101371;23;20417;-88
2022/04/29 05:54:07;;;;;;;19.20;17.23;;;11.10;99.90;;;;;;6097999;23;20410;-88
2022/04/29 05:56:34;;;;;;;18.97;17.07;;;11.20;99.70;;;;;;6097766;23;20447;-88
2022/04/29 05:59:01;;;;;;;24.40;21.90;;;11.30;99.30;;;;;;6102581;23;20920;-88
2022/04/29 06:01:30;;;;;;;22.13;17.57;;;11.30;98.90;;;;;;6101049;23;20419;-89
2022/04/29 06:03:56;;;;;;;19.57;17.83;;;11.60;99.40;;;;;;6097670;23;20405;-89
2022/04/29 06:06:23;;;;;;;22.10;18.40;;;12.10;98.70;;;;;;6096673;23;20463;-88
2022/04/29 06:08:50;;;;;;;20.00;16.30;;;12.30;97.10;;;;;;6097671;23;20453;-88
2022/04/29 06:11:18;;;;;;;18.57;16.67;;;12.40;96.40;;;;;;6110562;23;20385;-88
2022/04/29 06:13:45;;;;;;;18.47;16.57;;;12.90;96.40;;;;;;6122264;23;20591;-88
2022/04/29 06:16:12;;;;;;;19.93;15.73;;;13.90;94.80;;;;;;6112622;23;20549;-88
2022/04/29 06:18:38;;;;;;;19.67;16.30;;;14.70;92.70;;;;;;6098436;23;20746;-88
2022/04/29 06:21:05;;;;;;;16.93;15.23;;;15.60;90.40;;;;;;6098201;23;20866;-89
2022/04/29 06:23:32;;;;;;;15.90;14.37;;;16.20;86.10;;;;;;6120229;23;20457;-88
2022/04/29 06:25:58;;;;;;;18.27;16.57;;;15.90;84.00;;;;;;6108117;23;20823;-89
2022/04/29 06:28:29;;;;;;;19.33;17.30;;;16.50;83.50;;;;;;6099713;23;20467;-88
2022/04/29 06:30:55;;;;;;;20.53;17.00;;;16.80;80.70;;;;;;6120088;23;20381;-88
2022/04/29 06:33:22;;;;;;;19.67;17.70;;;16.90;78.50;;;;;;6119513;23;20405;-88
2022/04/29 06:35:56;;;;;;;18.83;17.00;;;17.00;78.00;;;;;;6123058;23;20445;-88
2022/04/29 06:38:23;;;;;;;19.33;17.53;;;17.10;77.30;;;;;;6124390;23;20377;-89
2022/04/29 06:40:50;;;;;;;18.40;16.67;;;17.60;76.10;;;;;;6124661;23;20440;-88
2022/04/29 06:43:17;;;;;;;16.90;15.40;;;18.10;73.80;;;;;;6120400;23;20420;-88
2022/04/29 06:45:45;;;;;;;16.83;15.10;;;18.60;70.90;;;;;;6103428;23;20792;-88
2022/04/29 06:48:12;;;;;;;16.63;14.93;;;19.00;68.20;;;;;;6117659;23;20486;-87
2022/04/29 06:50:39;;;;;;;15.97;14.23;;;19.00;67.40;;;;;;6122056;23;20449;-83
2022/04/29 06:53:06;;;;;;;14.83;13.33;;;19.10;66.20;;;;;;6127417;23;20456;-82
2022/04/29 06:55:36;;;;;;;16.40;15.00;;;19.40;65.70;;;;;;6128132;23;20422;-82
2022/04/29 06:58:03;;;;;;;15.13;13.83;;;19.20;65.10;;;;;;6127588;23;20390;-83
2022/04/29 07:00:30;;;;;;;17.70;15.93;;;19.30;65.00;;;;;;6113835;23;21028;-84
2022/04/29 07:02:58;;;;;;;15.60;14.10;;;19.50;63.00;;;;;;6099301;23;20406;-81
2022/04/29 07:05:25;;;;;;;16.77;15.17;;;19.50;63.80;;;;;;6103846;23;20442;-82
2022/04/29 07:07:51;;;;;;;16.80;15.20;;;19.50;61.90;;;;;;6100265;23;20509;-84
2022/04/29 07:10:18;;;;;;;16.13;13.93;;;19.90;61.00;;;;;;6098492;23;20460;-84
2022/04/29 07:12:47;;;;;;;15.53;14.07;;;19.90;62.10;;;;;;6097789;23;20412;-84
2022/04/29 07:15:14;;;;;;;14.53;13.20;;;20.20;60.00;;;;;;6097110;23;21028;-84
2022/04/29 07:17:41;;;;;;;16.70;15.30;;;20.60;58.70;;;;;;6098262;23;20424;-82
2022/04/29 07:20:11;;;;;;;17.00;15.27;;;20.50;58.50;;;;;;6099541;23;20973;-82
2022/04/29 07:22:39;;;;;;;21.10;15.87;;;20.20;58.20;;;;;;6108440;23;20415;-83
2022/04/29 07:25:07;;;;;;;15.80;14.50;;;19.90;58.00;;;;;;6098018;23;20937;-84
2022/04/29 07:27:33;;;;;;;14.63;13.33;;;19.10;59.80;;;;;;6098852;23;20798;-84
2022/04/29 07:30:00;;;;;;;15.20;13.73;;;19.00;61.40;;;;;;6098074;23;20430;-83
2022/04/29 07:32:28;;;;;;;17.83;13.30;;;19.30;60.80;;;;;;6097770;23;20411;-84
2022/04/29 07:43:10;;;;;;;13.73;12.30;;;19.20;61.40;;;;;;6098306;23;20372;-84
2022/04/29 07:45:38;;;;;;;14.13;12.90;;;18.30;63.20;;;;;;6097088;23;20549;-85
2022/04/29 07:48:06;;;;;;;14.30;13.07;;;18.80;63.10;;;;;;6097917;23;20426;-82
2022/04/29 07:50:32;;;;;;;11.23;10.33;;;19.40;62.60;;;;;;6098362;23;20469;-82
2022/04/29 07:53:01;;;;;;;12.50;11.30;;;19.90;61.10;;;;;;6097254;23;20410;-83
2022/04/29 07:55:28;;;;;;;13.30;12.10;;;20.60;59.50;;;;;;6097536;23;20406;-81
2022/04/29 07:57:56;;;;;;;13.10;12.00;;;21.20;58.40;;;;;;6100000;23;20412;-82
2022/04/29 08:00:23;;;;;;;12.37;11.13;;;21.00;56.80;;;;;;6100447;23;20427;-81
2022/04/29 08:02:50;;;;;;;13.23;12.03;;;21.00;57.30;;;;;;6099901;23;20408;-82
2022/04/29 08:05:18;;;;;;;11.30;10.40;;;21.10;57.90;;;;;;6097224;23;20421;-85
2022/04/29 08:07:44;;;;;;;11.57;10.50;;;21.10;57.40;;;;;;6097440;23;20419;-83
2022/04/29 08:10:12;;;;;;;12.77;11.77;;;21.10;57.50;;;;;;6096974;23;20432;-85
2022/04/29 08:12:39;;;;;;;11.83;10.90;;;20.80;57.10;;;;;;6097861;23;20432;-83
2022/04/29 08:15:07;;;;;;;13.70;11.73;;;20.50;57.20;;;;;;6097368;23;20791;-83
2022/04/29 08:17:34;;;;;;;13.60;12.47;;;20.20;57.90;;;;;;6097495;23;20790;-82
2022/04/29 08:20:02;;;;;;;13.20;12.00;;;19.90;57.60;;;;;;6097985;23;20434;-84
2022/04/29 08:22:28;;;;;;;12.20;11.07;;;19.90;58.50;;;;;;6097671;23;20879;-84
2022/04/29 08:24:55;;;;;;;14.00;12.43;;;20.40;58.20;;;;;;6097841;23;20466;-82
2022/04/29 08:27:23;;;;;;;11.33;10.33;;;21.80;56.40;;;;;;6097877;23;20441;-84
2022/04/29 08:29:50;;;;;;;12.70;11.43;;;23.60;53.50;;;;;;6097688;23;20431;-82
2022/04/29 08:32:16;;;;;;;12.70;11.50;;;25.40;50.80;;;;;;6096996;23;20764;-83
2022/04/29 08:34:43;;;;;;;12.23;11.17;;;27.50;47.30;;;;;;6097544;23;20415;-82
2022/04/29 08:37:10;;;;;;;12.30;9.60;;;28.40;42.70;;;;;;6096476;23;20449;-83
2022/04/29 08:39:37;;;;;;;13.00;11.70;;;29.40;41.30;;;;;;6096814;23;20876;-82
2022/04/29 08:42:06;;;;;;;13.30;11.13;;;30.50;40.10;;;;;;6100159;23;20414;-82
2022/04/29 08:44:35;;;;;;;11.73;10.57;;;31.50;39.00;;;;;;6098437;23;20412;-83
2022/04/29 08:47:02;;;;;;;10.80;9.80;;;32.00;38.30;;;;;;6099153;23;20495;-84
2022/04/29 08:49:33;;;;;;;10.57;9.60;;;32.30;36.60;;;;;;6098505;23;20415;-83
2022/04/29 08:52:00;;;;;;;10.10;9.10;;;33.20;35.80;;;;;;6098670;23;20392;-83
2022/04/29 09:00:01;;;;;;;10.60;9.57;;;32.50;33.90;;;;;;6106905;23;20415;-81
2022/04/29 09:02:28;;;;;;;9.93;9.03;;;32.40;34.10;;;;;;6112711;23;20388;-82
2022/04/29 09:04:57;;;;;;;9.90;8.97;;;32.40;34.00;;;;;;6118249;23;20388;-82
2022/04/29 09:08:02;;;;;;;9.90;9.20;;;32.10;33.80;;;;;;6120990;23;20472;-82
2022/04/29 09:10:30;;;;;;;9.37;8.53;;;32.50;33.60;;;;;;6106322;23;20484;-82
2022/04/29 09:13:10;;;;;;;9.87;9.07;;;33.00;33.20;;;;;;6106718;23;20440;-82
2022/04/29 09:15:46;;;;;;;10.03;9.03;;;33.50;32.90;;;;;;6104615;23;20926;-83
2022/04/29 09:18:12;;;;;;;9.47;8.67;;;33.50;31.90;;;;;;6104101;23;20385;-82
2022/04/29 09:20:41;;;;;;;9.40;8.70;;;33.70;31.80;;;;;;6101274;23;20496;-82
2022/04/29 09:23:08;;;;;;;9.17;8.40;;;33.40;31.30;;;;;;6100737;23;20487;-82
2022/04/29 09:25:36;;;;;;;8.10;7.40;;;33.80;31.40;;;;;;6099674;23;20651;-82
2022/04/29 09:28:05;;;;;;;6.77;6.17;;;33.40;29.50;;;;;;6099829;23;20840;-82
2022/04/29 09:30:37;;;;;;;7.00;5.87;;;33.50;29.20;;;;;;6108289;23;20432;-82
2022/04/29 09:33:07;;;;;;;7.00;6.40;;;33.80;28.80;;;;;;6116108;23;20393;-82
2022/04/29 09:35:38;;;;;;;6.77;6.27;;;32.50;29.10;;;;;;6115487;23;20412;-82
2022/04/29 09:40:50;;;;;;;7.33;6.73;;;29.80;31.50;;;;;;6099873;23;20452;-82
2022/04/29 09:43:16;;;;;;;8.33;7.63;;;29.40;32.20;;;;;;6101085;23;20413;-82
2022/04/29 09:45:43;;;;;;;7.20;6.60;;;29.70;31.90;;;;;;6101059;23;20419;-82
2022/04/29 09:48:11;;;;;;;6.83;6.30;;;29.80;31.50;;;;;;6102639;23;20503;-81
2022/04/29 09:50:48;;;;;;;7.70;6.07;;;28.20;32.30;;;;;;6100903;23;20458;-82
2022/04/29 09:53:23;;;;;;;6.40;5.80;;;28.20;34.30;;;;;;6103851;23;20401;-83
2022/04/29 09:56:07;;;;;;;6.20;5.63;;;28.40;33.10;;;;;;6103881;23;20413;-81
2022/04/29 09:58:34;;;;;;;9.20;6.33;;;28.00;33.60;;;;;;6100847;23;20412;-81
2022/04/29 10:01:04;;;;;;;5.67;4.83;;;28.50;33.50;;;;;;6100806;23;20432;-81
2022/04/29 10:03:33;;;;;;;6.80;6.20;;;28.70;32.70;;;;;;6100976;23;20412;-81
2022/04/29 10:06:02;;;;;;;6.10;5.60;;;28.10;33.10;;;;;;6099842;23;20495;-83
2022/04/29 10:08:32;;;;;;;7.40;6.60;;;27.40;33.30;;;;;;6100590;23;20796;-81
2022/04/29 10:11:00;;;;;;;6.60;6.10;;;26.90;34.90;;;;;;6114188;23;20531;-85
2022/04/29 10:13:28;;;;;;;7.10;6.40;;;26.20;35.10;;;;;;6107459;23;20440;-86
2022/04/29 10:15:55;;;;;;;5.40;4.90;;;25.70;36.00;;;;;;6100363;23;20476;-85
2022/04/29 10:21:17;;;;;;;6.73;6.23;;;25.40;35.60;;;;;;6100121;23;20436;-82
2022/04/29 10:23:48;;;;;;;5.93;5.20;;;24.50;36.60;;;;;;6099243;23;20389;-82
2022/04/29 10:26:17;;;;;;;5.10;4.60;;;24.80;37.90;;;;;;6098833;23;20728;-85
2022/04/29 10:28:44;;;;;;;5.43;5.03;;;25.30;37.70;;;;;;6100605;23;20428;-85
2022/04/29 10:31:18;;;;;;;5.17;4.77;;;26.60;35.60;;;;;;6099785;23;20428;-85
2022/04/29 10:33:45;;;;;;;5.90;4.77;;;27.10;34.00;;;;;;6099760;23;20870;-84
2022/04/29 10:36:15;;;;;;;4.97;4.53;;;27.50;33.80;;;;;;6099935;23;20413;-84
2022/04/29 10:38:46;;;;;;;6.23;5.63;;;27.50;33.10;;;;;;6100405;23;20394;-84
2022/04/29 10:41:17;;;;;;;5.43;5.03;;;26.10;34.70;;;;;;6099189;23;20464;-85
2022/04/29 10:44:05;;;;;;;4.93;4.53;;;26.60;34.20;;;;;;6100305;23;20409;-84
2022/04/29 10:46:35;;;;;;;5.30;4.90;;;27.50;33.70;;;;;;6105170;23;20435;-83
2022/04/29 10:49:24;;;;;;;5.13;4.73;;;28.40;32.00;;;;;;6107526;23;20404;-84
2022/04/29 10:51:53;;;;;;;6.27;5.07;;;29.20;31.30;;;;;;6106870;23;20412;-84
2022/04/29 10:54:46;;;;;;;4.70;4.10;;;29.20;31.50;;;;;;6106248;23;20400;-84
2022/04/29 10:57:14;;;;;;;4.73;4.33;;;30.10;31.20;;;;;;6099431;23;20468;-85
2022/04/29 10:59:52;;;;;;;4.50;4.10;;;30.10;29.80;;;;;;6100259;23;20428;-84
2022/04/29 11:02:26;;;;;;;5.13;4.13;;;31.70;29.40;;;;;;6099644;23;20408;-83
2022/04/29 11:04:53;;;;;;;4.37;4.07;;;30.60;29.50;;;;;;6098871;23;20400;-83
2022/04/29 11:07:44;;;;;;;4.10;3.73;;;30.40;29.90;;;;;;6100321;23;20499;-83
2022/04/29 11:10:14;;;;;;;4.40;3.43;;;31.40;29.60;;;;;;6100520;23;20435;-85
2022/04/29 11:12:42;;;;;;;4.30;3.90;;;32.00;28.20;;;;;;6100367;23;20916;-82
2022/04/29 11:15:11;;;;;;;7.37;3.57;;;31.60;28.60;;;;;;6099376;23;20413;-83
2022/04/29 11:17:39;;;;;;;5.80;4.60;;;31.50;29.00;;;;;;6105354;23;20404;-82
2022/04/29 11:20:21;;;;;;;5.53;4.30;;;31.90;28.00;;;;;;6108267;23;20432;-82
2022/04/29 11:25:54;;;;;;;6.07;4.30;;;30.30;28.90;;;;;;6108935;23;20376;-85
2022/04/29 11:28:22;;;;;;;4.07;3.70;;;30.50;29.40;;;;;;6110064;23;20512;-84
2022/04/29 11:30:49;;;;;;;4.13;3.77;;;30.90;29.40;;;;;;6108967;23;20432;-83
2022/04/29 11:33:23;;;;;;;3.90;3.60;;;29.90;29.50;;;;;;6109642;23;20413;-84
2022/04/29 11:35:52;;;;;;;3.93;3.63;;;29.10;29.20;;;;;;6112375;23;20400;-85
2022/04/29 11:38:20;;;;;;;4.00;3.70;;;28.20;29.00;;;;;;6115192;23;20410;-83
2022/04/29 11:40:48;;;;;;;3.90;3.40;;;27.30;29.60;;;;;;6121189;23;20421;-85
2022/04/29 11:43:15;;;;;;;5.40;4.20;;;26.80;30.90;;;;;;6115809;23;20411;-85
2022/04/29 11:45:43;;;;;;;4.80;4.50;;;25.70;32.70;;;;;;6116156;23;20409;-83
2022/04/29 11:48:10;;;;;;;4.70;3.70;;;25.60;33.10;;;;;;6115931;23;20447;-84
2022/04/29 11:50:38;;;;;;;4.63;4.30;;;24.70;34.10;;;;;;6115072;23;20444;-83
2022/04/29 11:53:09;;;;;;;4.43;4.10;;;24.40;34.90;;;;;;6112192;23;20416;-84
2022/04/29 11:55:38;;;;;;;4.10;3.67;;;24.60;34.70;;;;;;6104768;23;20395;-84
2022/04/29 11:58:11;;;;;;;4.00;3.70;;;25.10;33.50;;;;;;6110377;23;20452;-83
2022/04/29 12:00:38;;;;;;;4.57;4.20;;;25.00;33.50;;;;;;6122093;23;20432;-86
2022/04/29 12:03:05;;;;;;;4.20;3.83;;;25.00;32.80;;;;;;6111197;23;20409;-83
2022/04/29 12:05:32;;;;;;;4.17;3.87;;;24.60;32.50;;;;;;6109218;23;20416;-83
2022/04/29 12:08:01;;;;;;;3.67;3.07;;;24.70;33.00;;;;;;6104901;23;20451;-83
2022/04/29 12:10:30;;;;;;;4.83;3.90;;;24.50;33.30;;;;;;6106419;23;20428;-82
2022/04/29 12:13:00;;;;;;;4.93;4.43;;;24.30;33.80;;;;;;6105655;23;20411;-83
2022/04/29 12:15:30;;;;;;;4.53;3.63;;;24.00;33.70;;;;;;6106354;23;20408;-83
2022/04/29 12:17:59;;;;;;;4.70;4.20;;;23.70;34.20;;;;;;6104351;23;20405;-82
2022/04/29 12:20:26;;;;;;;3.43;3.23;;;23.40;35.10;;;;;;6105447;23;20456;-82
2022/04/29 12:22:53;;;;;;;4.17;3.77;;;23.50;35.00;;;;;;6103926;23;20923;-83
2022/04/29 12:25:25;;;;;;;4.03;3.63;;;23.80;34.70;;;;;;6099239;23;20408;-82
2022/04/29 12:28:15;;;;;;;4.40;3.83;;;24.30;33.80;;;;;;6098303;23;20455;-81
2022/04/29 12:36:46;;;;;;;4.20;3.67;;;24.50;32.90;;;;;;6102739;23;20776;-84
2022/04/29 12:39:13;;;;;;;5.23;4.73;;;23.80;34.60;;;;;;6102028;23;20427;-84
2022/04/29 12:41:40;;;;;;;5.07;4.57;;;24.50;35.10;;;;;;6102075;23;20456;-85
2022/04/29 12:44:09;;;;;;;4.43;4.03;;;24.80;33.40;;;;;;6102938;23;20467;-83
2022/04/29 12:46:36;;;;;;;5.23;4.17;;;25.40;32.80;;;;;;6109947;23;20404;-82
2022/04/29 12:49:04;;;;;;;4.00;3.60;;;26.70;33.60;;;;;;6108369;23;20558;-84
2022/04/29 12:51:32;;;;;;;4.07;3.67;;;28.20;30.10;;;;;;6123375;23;20515;-86
2022/04/29 12:54:00;;;;;;;3.97;3.67;;;28.50;29.40;;;;;;6132290;23;20424;-85
2022/04/29 12:56:29;;;;;;;3.90;3.50;;;29.50;29.90;;;;;;6134075;23;20960;-84
2022/04/29 12:58:57;;;;;;;3.40;3.17;;;29.00;28.40;;;;;;6147149;23;20403;-85
2022/04/29 13:01:25;;;;;;;4.17;3.77;;;30.40;28.30;;;;;;6118688;23;20430;-86
2022/04/29 13:03:54;;;;;;;4.30;3.90;;;30.80;29.20;;;;;;6103562;23;20460;-86
2022/04/29 13:06:23;;;;;;;4.47;4.07;;;30.80;27.90;;;;;;6108279;23;20733;-84
2022/04/29 13:08:54;;;;;;;6.40;4.53;;;31.00;28.20;;;;;;6114650;23;20459;-86
2022/04/29 13:11:20;;;;;;;3.73;3.53;;;32.00;27.90;;;;;;6105117;23;20490;-85
2022/04/29 13:13:47;;;;;;;6.10;4.50;;;31.70;27.40;;;;;;6103153;23;20740;-85
2022/04/29 13:16:14;;;;;;;5.13;3.90;;;31.50;27.40;;;;;;6108559;23;20408;-84
2022/04/29 13:18:43;;;;;;;4.30;4.00;;;30.80;28.20;;;;;;6105813;23;20412;-83
2022/04/29 13:21:10;;;;;;;3.67;3.37;;;31.40;27.70;;;;;;6113360;23;20503;-85